Zanesville, OH (43701)

11:17 PM EDT on August 29, 2016 (GMT -0400)
APRSWXNET | | Change Station

Elev 839 ft 39.95 °N, 82.00 °W | Updated 44 minutes ago

Clear
Clear
74 °F
Feels Like 75 °F
N
3
Wind Variable Wind from North
Gusts 0.0 mph

Today
High -- | Low -- °F
--% Chance of Precip.
Yesterday
High -- | Low -- °F
Precip. -- in
Pressure 30.17 in
Visibility 10.0 miles
Clouds Clear
Heat Index 75 °F
Dew Point 67 °F
Humidity 78%
Rainfall in
Snow Depth Not available.
6:53 AM 8:03 PM
Waning Crescent, 5% visible
METAR KZZV 300253Z AUTO 00000KT 10SM CLR 22/19 A3019 RMK AO2 SLP216 T02170189 50007
Pressure 30.17 in
Visibility 10.0 miles
Clouds Clear
Heat Index 75 °F
Dew Point 67 °F
Humidity 78%
Rainfall in
Snow Depth Not available.
6:53 AM 8:03 PM
Waning Crescent, 5% visible
METAR KZZV 300253Z AUTO 00000KT 10SM CLR 22/19 A3019 RMK AO2 SLP216 T02170189 50007

10-Day Weather Forecast

Almanac

Astronomy

Aug. 29, 2016 Rise Set
Actual Time
Civil Twilight
Nautical Twilight
Astronomical Twilight
Moon
Length of Visible Light
Length of Day
Tomorrow will be .
, % of the Moon is Illuminated

Today's Extremes

State Highs State Lows

Community

WunderPhotos

Upload Photos

1,935,773 photos uploaded!

WunderBlog® & News

Nearby

Air Quality

  Air Quality AQ Index Pollutant
Not available.

Snow Depth

Station Depth Elevation

Earthquake Activity

City Distance Mag. Time & Date
Minimum magnitude displayed is 2.5.

Coastal Water Temperatures

Place Temperature

Stations

Nearby Weather Stations

Station Location Temp. Windchill Dew Point Humidity Wind Precip. Elev Updated Type
                   

Watches & Warnings

There are currently no watches in effect.